Time;durP1;ratioP1;P1;durP2;ratioP2;P2;SDS_P1;SDS_P2;PMS_P1;PMS_P2;Temp;Humidity;BMP_temperature;BMP_pressure;BME280_temperature;BME280_humidity;BME280_pressure;Samples;Min_cycle;Max_cycle;Signal;HPM_P1;HPM_P2
2022/07/07 00:01:57;;;;;;;7.75;6.28;;;16.70;99.90;;;;;;5060603;28;20107;-70
2022/07/07 00:04:23;;;;;;;7.60;5.78;;;16.70;99.90;;;;;;5059699;28;20136;-70
2022/07/07 00:06:48;;;;;;;7.47;5.75;;;16.70;99.90;;;;;;5063991;28;20123;-70
2022/07/07 00:09:14;;;;;;;9.57;6.72;;;16.70;99.90;;;;;;5063741;28;20067;-70
2022/07/07 00:11:40;;;;;;;8.63;6.13;;;16.70;99.90;;;;;;5060694;28;20490;-70
2022/07/07 00:14:08;;;;;;;8.98;5.70;;;16.70;99.90;;;;;;5063608;28;20037;-70
2022/07/07 00:16:35;;;;;;;7.22;5.93;;;16.70;99.90;;;;;;5061683;28;20068;-70
2022/07/07 00:19:01;;;;;;;7.18;6.15;;;16.70;99.90;;;;;;5063807;28;20044;-70
2022/07/07 00:21:27;;;;;;;6.10;5.53;;;16.70;99.90;;;;;;5062236;28;20044;-70
2022/07/07 00:23:53;;;;;;;6.90;5.68;;;16.80;99.90;;;;;;5062493;28;20041;-70
2022/07/07 00:26:19;;;;;;;6.93;5.53;;;16.80;99.90;;;;;;5062563;28;20106;-70
2022/07/07 00:28:44;;;;;;;8.43;5.95;;;16.80;99.90;;;;;;5066718;28;20041;-70
2022/07/07 00:31:10;;;;;;;8.63;5.75;;;16.80;99.90;;;;;;5063793;28;20049;-70
2022/07/07 00:33:36;;;;;;;8.02;5.80;;;16.80;99.90;;;;;;5064168;28;20139;-70
2022/07/07 00:36:01;;;;;;;6.93;5.97;;;16.70;99.90;;;;;;5064398;28;20143;-70
2022/07/07 00:38:27;;;;;;;8.18;6.15;;;16.80;99.90;;;;;;5069388;28;20351;-70
2022/07/07 00:40:53;;;;;;;11.05;6.40;;;16.70;99.90;;;;;;5066921;28;20101;-69
2022/07/07 00:43:19;;;;;;;8.10;6.63;;;16.70;99.90;;;;;;5066025;28;20040;-69
2022/07/07 00:45:47;;;;;;;8.98;6.85;;;16.70;99.90;;;;;;5066637;28;20044;-69
2022/07/07 00:48:13;;;;;;;8.68;7.22;;;16.70;99.90;;;;;;5065112;28;20051;-69
2022/07/07 00:50:39;;;;;;;9.10;7.55;;;16.70;99.90;;;;;;5066599;28;20044;-69
2022/07/07 00:53:04;;;;;;;7.78;7.00;;;16.70;99.90;;;;;;5065819;28;20064;-69
2022/07/07 00:55:30;;;;;;;10.20;7.68;;;16.60;99.90;;;;;;5065555;28;20074;-70
2022/07/07 00:57:55;;;;;;;8.75;7.80;;;16.60;99.90;;;;;;5062494;28;20044;-69
2022/07/07 01:00:21;;;;;;;13.55;8.35;;;16.60;99.90;;;;;;5066331;28;20145;-69
2022/07/07 01:02:46;;;;;;;8.50;7.10;;;16.60;99.90;;;;;;5066745;28;20060;-69
2022/07/07 01:05:12;;;;;;;9.30;7.45;;;16.60;99.90;;;;;;5066490;28;20465;-69
2022/07/07 01:07:38;;;;;;;9.73;8.82;;;16.60;99.90;;;;;;5065205;28;20526;-69
2022/07/07 01:10:06;;;;;;;9.13;8.00;;;16.60;99.90;;;;;;5066319;28;20461;-71
2022/07/07 01:12:36;;;;;;;9.18;8.27;;;16.60;99.90;;;;;;5063101;28;20399;-70
2022/07/07 01:15:03;;;;;;;9.45;8.55;;;16.60;99.90;;;;;;5064327;28;20111;-71
2022/07/07 01:17:29;;;;;;;9.63;8.00;;;16.60;99.90;;;;;;5064711;28;20065;-71
2022/07/07 01:19:55;;;;;;;9.88;8.65;;;16.60;99.90;;;;;;5066518;28;20064;-71
2022/07/07 01:22:24;;;;;;;9.77;8.77;;;16.60;99.90;;;;;;5065823;28;20036;-71
2022/07/07 01:24:49;;;;;;;11.85;9.07;;;16.60;99.90;;;;;;5066642;28;20468;-71
2022/07/07 01:27:19;;;;;;;10.95;9.05;;;16.60;99.90;;;;;;5061838;28;20052;-71
2022/07/07 01:29:47;;;;;;;11.10;9.90;;;16.60;99.90;;;;;;5065157;28;20036;-71
2022/07/07 01:32:13;;;;;;;11.40;10.30;;;16.60;99.90;;;;;;5066830;28;20356;-72
2022/07/07 01:34:41;;;;;;;11.13;9.32;;;16.60;99.90;;;;;;5066229;28;20051;-73
2022/07/07 01:37:07;;;;;;;11.45;9.95;;;16.50;99.90;;;;;;5066587;28;20499;-72
2022/07/07 01:39:33;;;;;;;10.93;9.88;;;16.50;99.90;;;;;;5066700;28;20047;-72
2022/07/07 01:41:59;;;;;;;11.15;9.98;;;16.50;99.90;;;;;;5064398;28;20537;-72
2022/07/07 01:44:25;;;;;;;11.00;9.80;;;16.40;99.90;;;;;;5066232;28;20033;-72
2022/07/07 01:46:51;;;;;;;13.75;9.27;;;16.50;99.90;;;;;;5066635;28;20376;-72
2022/07/07 01:49:17;;;;;;;13.18;9.23;;;16.50;99.90;;;;;;5064564;28;20036;-72
2022/07/07 01:51:42;;;;;;;10.00;9.00;;;16.50;99.90;;;;;;5065531;28;20114;-72
2022/07/07 01:54:08;;;;;;;9.90;8.65;;;16.50;99.90;;;;;;5064928;28;20398;-72
2022/07/07 01:56:34;;;;;;;10.32;8.40;;;16.50;99.90;;;;;;5063355;28;20123;-72
2022/07/07 01:59:00;;;;;;;12.20;8.98;;;16.50;99.90;;;;;;5067079;28;20040;-72
2022/07/07 02:01:26;;;;;;;10.48;8.68;;;16.50;99.90;;;;;;5047862;28;20131;-72
2022/07/07 02:03:51;;;;;;;10.20;9.20;;;16.50;99.90;;;;;;5065306;28;20175;-72
2022/07/07 02:06:17;;;;;;;13.38;9.75;;;16.50;99.90;;;;;;5066183;28;20036;-72
2022/07/07 02:08:42;;;;;;;10.32;9.20;;;16.50;99.90;;;;;;5065497;28;20081;-73
2022/07/07 02:11:14;;;;;;;11.60;10.15;;;16.50;99.90;;;;;;5064829;28;20036;-73
2022/07/07 02:13:44;;;;;;;12.52;10.30;;;16.50;99.90;;;;;;5066413;28;20131;-74
2022/07/07 02:16:10;;;;;;;10.32;8.60;;;16.40;99.90;;;;;;5060629;28;20082;-73
2022/07/07 02:18:38;;;;;;;7.53;6.32;;;16.40;99.90;;;;;;5063685;28;20518;-73
2022/07/07 02:21:04;;;;;;;;;;;16.40;99.90;;;;;;5063669;28;20571;-74
2022/07/07 02:23:31;;;;;;;7.88;5.30;;;16.30;99.90;;;;;;5065637;28;19927;-73
2022/07/07 02:25:56;;;;;;;9.20;5.60;;;16.30;99.90;;;;;;5065388;28;20047;-73
2022/07/07 02:28:23;;;;;;;5.50;4.97;;;16.30;99.90;;;;;;5065212;28;20037;-73
2022/07/07 02:30:52;;;;;;;4.32;3.92;;;16.30;99.90;;;;;;5062457;28;20124;-73
2022/07/07 02:33:20;;;;;;;6.07;3.80;;;16.20;99.90;;;;;;5064261;28;20094;-73
2022/07/07 02:35:46;;;;;;;4.25;3.38;;;16.20;99.90;;;;;;5062070;28;20078;-73
2022/07/07 02:38:12;;;;;;;4.80;3.10;;;16.20;99.90;;;;;;5065344;28;20064;-73
2022/07/07 02:40:37;;;;;;;3.83;2.72;;;16.20;99.90;;;;;;5066161;28;20092;-70
2022/07/07 02:43:03;;;;;;;2.95;2.58;;;16.20;99.90;;;;;;5064829;28;20064;-71
2022/07/07 02:45:29;;;;;;;3.88;2.88;;;16.20;99.90;;;;;;5064570;28;20040;-72
2022/07/07 02:47:54;;;;;;;3.80;3.08;;;16.20;99.90;;;;;;5065959;28;20452;-72
2022/07/07 02:50:20;;;;;;;4.80;2.80;;;16.20;99.90;;;;;;5062159;28;20041;-71
2022/07/07 02:52:45;;;;;;;3.45;2.70;;;16.20;99.90;;;;;;5062524;28;20044;-72
2022/07/07 02:55:11;;;;;;;3.80;3.30;;;16.20;99.90;;;;;;5062774;28;20094;-71
2022/07/07 02:57:37;;;;;;;3.30;2.75;;;16.10;99.90;;;;;;5057923;28;20048;-71
2022/07/07 03:00:05;;;;;;;4.10;2.60;;;16.10;99.90;;;;;;5065184;28;20043;-72
2022/07/07 03:02:30;;;;;;;5.47;2.70;;;16.10;99.90;;;;;;5064180;28;20068;-71
2022/07/07 03:04:56;;;;;;;3.40;2.80;;;16.20;99.90;;;;;;5063457;28;20476;-71
2022/07/07 03:07:22;;;;;;;3.55;2.88;;;16.10;99.90;;;;;;5065571;28;20045;-71
2022/07/07 03:09:47;;;;;;;4.53;3.03;;;16.10;99.90;;;;;;5062334;28;20036;-71
2022/07/07 03:12:13;;;;;;;5.95;3.40;;;16.10;99.90;;;;;;5062211;28;20040;-71
2022/07/07 03:14:38;;;;;;;3.90;2.60;;;16.10;99.90;;;;;;5063791;28;20511;-72
2022/07/07 03:17:04;;;;;;;4.88;2.90;;;16.10;99.90;;;;;;5065141;28;20127;-71
2022/07/07 03:19:30;;;;;;;5.00;3.10;;;16.20;99.90;;;;;;5062507;28;20047;-71
2022/07/07 03:21:55;;;;;;;3.40;2.88;;;16.10;99.90;;;;;;5064999;28;20435;-71
2022/07/07 03:24:21;;;;;;;5.45;3.22;;;16.10;99.90;;;;;;5065267;28;20047;-71
2022/07/07 03:26:46;;;;;;;3.58;2.80;;;16.10;99.90;;;;;;5063730;28;20047;-71
2022/07/07 03:29:12;;;;;;;3.50;3.03;;;16.10;99.90;;;;;;5065581;28;20032;-71
2022/07/07 03:31:38;;;;;;;4.50;2.90;;;16.10;99.90;;;;;;5063548;28;20036;-71
2022/07/07 03:34:03;;;;;;;3.10;2.80;;;16.10;99.90;;;;;;5060869;28;20040;-72
2022/07/07 03:36:29;;;;;;;3.40;3.10;;;16.10;99.90;;;;;;5064135;28;20048;-73
2022/07/07 03:38:54;;;;;;;3.88;2.90;;;16.20;99.90;;;;;;5064505;28;20139;-73
2022/07/07 03:41:20;;;;;;;3.67;3.38;;;16.10;99.90;;;;;;5063691;28;20075;-72
2022/07/07 03:43:45;;;;;;;3.75;3.15;;;16.10;99.90;;;;;;5064502;28;20040;-73
2022/07/07 03:46:11;;;;;;;3.45;3.15;;;16.10;99.90;;;;;;5064555;28;20037;-72
2022/07/07 03:48:36;;;;;;;5.70;2.92;;;16.10;99.90;;;;;;5062883;28;20079;-73
2022/07/07 03:51:02;;;;;;;3.90;3.05;;;16.10;99.90;;;;;;5062339;28;20065;-73
2022/07/07 03:53:27;;;;;;;4.35;2.78;;;16.10;99.90;;;;;;5065641;28;20137;-72
2022/07/07 03:55:53;;;;;;;5.60;3.03;;;16.10;99.90;;;;;;5064613;28;20503;-72
2022/07/07 03:58:19;;;;;;;7.45;2.72;;;16.10;99.90;;;;;;5077095;28;20140;-72
2022/07/07 04:00:44;;;;;;;5.85;2.40;;;16.20;99.90;;;;;;5062359;28;20625;-72
2022/07/07 04:03:10;;;;;;;8.75;2.30;;;16.10;99.90;;;;;;5061804;28;20089;-71
2022/07/07 04:05:35;;;;;;;6.03;2.30;;;16.10;99.90;;;;;;5063028;28;20424;-71
2022/07/07 04:08:01;;;;;;;7.38;2.40;;;16.10;99.90;;;;;;5067849;28;20074;-71
2022/07/07 04:10:27;;;;;;;6.47;2.28;;;16.10;99.90;;;;;;5067784;28;20041;-71
2022/07/07 04:12:54;;;;;;;6.40;2.58;;;16.10;99.90;;;;;;5067321;28;20100;-72
2022/07/07 04:15:20;;;;;;;5.38;2.08;;;16.10;99.90;;;;;;5065830;28;20040;-72
2022/07/07 04:17:46;;;;;;;7.20;2.60;;;16.10;99.90;;;;;;5064639;28;20399;-70
2022/07/07 04:20:12;;;;;;;8.18;2.45;;;16.10;99.90;;;;;;5065234;28;20040;-71
2022/07/07 04:22:37;;;;;;;5.90;2.33;;;16.10;99.90;;;;;;5069344;28;20044;-70
2022/07/07 04:25:03;;;;;;;5.47;2.10;;;16.10;99.90;;;;;;5066476;28;20037;-71
2022/07/07 04:27:29;;;;;;;3.83;2.08;;;16.10;99.90;;;;;;5067187;28;20120;-72
2022/07/07 04:29:55;;;;;;;7.50;2.10;;;16.10;99.90;;;;;;5069822;28;20158;-72
2022/07/07 04:32:20;;;;;;;4.95;2.20;;;16.10;99.90;;;;;;5067586;28;20037;-72
2022/07/07 04:34:46;;;;;;;4.28;1.95;;;16.10;99.90;;;;;;5067632;28;20522;-72
2022/07/07 04:37:11;;;;;;;8.75;2.05;;;16.10;99.90;;;;;;5066433;28;20039;-72
2022/07/07 04:39:37;;;;;;;6.95;2.17;;;16.10;99.90;;;;;;5066694;28;20036;-72
2022/07/07 04:42:04;;;;;;;5.75;1.85;;;16.10;99.90;;;;;;5066250;28;20039;-72
2022/07/07 04:44:29;;;;;;;4.47;1.52;;;16.00;99.90;;;;;;5067822;28;20028;-72
2022/07/07 04:46:55;;;;;;;4.53;1.10;;;16.10;99.90;;;;;;5066125;28;20040;-72
2022/07/07 04:49:20;;;;;;;3.38;0.98;;;16.00;99.90;;;;;;5065586;28;20128;-72
2022/07/07 04:51:47;;;;;;;4.95;1.20;;;16.00;99.90;;;;;;5067722;28;20163;-72
2022/07/07 04:54:12;;;;;;;4.40;1.10;;;15.90;99.90;;;;;;5067107;28;20055;-71
2022/07/07 04:56:38;;;;;;;2.88;1.00;;;15.90;99.90;;;;;;5067489;28;20560;-72
2022/07/07 04:59:03;;;;;;;3.38;1.20;;;15.90;99.90;;;;;;5067092;28;20041;-74
2022/07/07 05:01:29;;;;;;;5.03;1.15;;;16.00;99.90;;;;;;5063955;28;20050;-74
2022/07/07 05:03:54;;;;;;;4.82;1.27;;;16.00;99.90;;;;;;5066812;28;20064;-74
2022/07/07 05:06:20;;;;;;;3.25;1.00;;;15.80;99.90;;;;;;5067445;28;20095;-72
2022/07/07 05:08:45;;;;;;;4.97;1.02;;;15.80;99.90;;;;;;5069523;28;20575;-72
2022/07/07 05:11:11;;;;;;;4.20;1.20;;;15.70;99.90;;;;;;5064836;28;20086;-72
2022/07/07 05:13:37;;;;;;;4.35;1.00;;;15.70;99.90;;;;;;5065835;28;20040;-71
2022/07/07 05:16:02;;;;;;;4.07;1.23;;;15.90;99.90;;;;;;5067020;28;20036;-72
2022/07/07 05:18:30;;;;;;;4.78;1.42;;;15.90;99.90;;;;;;5066007;28;20063;-72
2022/07/07 05:20:56;;;;;;;6.22;1.77;;;15.90;99.90;;;;;;5066668;28;20132;-73
2022/07/07 05:23:21;;;;;;;7.45;1.42;;;15.90;99.90;;;;;;5067322;28;20072;-72
2022/07/07 05:25:47;;;;;;;7.07;1.48;;;15.80;99.90;;;;;;5065623;28;20028;-73
2022/07/07 05:28:12;;;;;;;6.53;1.10;;;15.80;99.90;;;;;;5067669;28;20035;-73
2022/07/07 05:30:38;;;;;;;7.03;1.50;;;15.60;99.90;;;;;;5068350;28;20033;-73
2022/07/07 05:33:07;;;;;;;6.03;1.33;;;15.80;99.90;;;;;;5066323;28;20074;-73
2022/07/07 05:35:34;;;;;;;3.10;0.90;;;15.50;99.90;;;;;;5063513;28;20119;-73
2022/07/07 05:38:00;;;;;;;5.13;1.00;;;15.70;99.90;;;;;;5065446;28;20049;-73
2022/07/07 05:40:25;;;;;;;3.35;0.80;;;15.80;99.90;;;;;;5066289;28;20510;-72
2022/07/07 05:42:51;;;;;;;4.53;0.80;;;15.80;99.90;;;;;;5063042;28;20165;-73
2022/07/07 05:45:16;;;;;;;2.25;0.60;;;16.10;99.90;;;;;;5067888;28;20036;-73
2022/07/07 05:47:42;;;;;;;4.88;1.20;;;16.30;99.90;;;;;;5062697;28;20056;-72
2022/07/07 05:50:08;;;;;;;5.53;1.08;;;16.70;99.90;;;;;;5067287;28;20052;-73
2022/07/07 05:52:33;;;;;;;3.70;1.20;;;16.80;99.90;;;;;;5065879;28;20044;-72
2022/07/07 05:54:59;;;;;;;5.45;0.90;;;17.50;99.90;;;;;;5066456;28;20477;-70
2022/07/07 05:57:24;;;;;;;4.07;1.20;;;17.80;99.90;;;;;;5063875;28;20052;-70
2022/07/07 05:59:50;;;;;;;3.00;1.13;;;18.20;99.90;;;;;;5066654;28;20044;-71
2022/07/07 06:02:16;;;;;;;5.70;1.23;;;19.20;99.90;;;;;;5065838;28;20047;-70
2022/07/07 06:04:41;;;;;;;3.92;1.10;;;20.30;99.90;;;;;;5063356;28;20508;-71
2022/07/07 06:07:07;;;;;;;4.38;0.98;;;19.80;99.90;;;;;;5064273;28;20052;-70
2022/07/07 06:09:32;;;;;;;5.40;1.20;;;19.40;99.90;;;;;;5064877;28;20083;-70
2022/07/07 06:11:58;;;;;;;3.28;1.00;;;19.50;99.90;;;;;;5065550;28;20035;-70
2022/07/07 06:14:24;;;;;;;5.00;1.30;;;19.90;99.90;;;;;;5066833;28;20033;-71
2022/07/07 06:16:49;;;;;;;3.53;1.10;;;20.50;99.90;;;;;;5066018;28;20033;-71
2022/07/07 06:19:15;;;;;;;4.63;1.00;;;20.10;99.90;;;;;;5062854;28;20359;-71
2022/07/07 06:21:41;;;;;;;6.50;1.27;;;20.20;99.90;;;;;;5065582;28;20523;-71
2022/07/07 06:24:08;;;;;;;5.47;1.20;;;20.00;99.90;;;;;;5066779;28;20062;-71
2022/07/07 06:26:33;;;;;;;5.22;1.50;;;20.00;99.90;;;;;;5065944;28;20084;-72
2022/07/07 06:28:59;;;;;;;5.57;1.45;;;20.00;99.90;;;;;;5064325;28;20072;-72
2022/07/07 06:31:24;;;;;;;5.10;1.23;;;20.20;99.90;;;;;;5064647;28;20090;-71
2022/07/07 06:33:50;;;;;;;7.53;1.38;;;21.00;99.90;;;;;;5062382;28;20045;-72
2022/07/07 06:36:16;;;;;;;3.85;0.95;;;21.60;99.90;;;;;;5064377;28;20372;-73
2022/07/07 06:38:42;;;;;;;4.50;1.42;;;21.80;99.90;;;;;;5064882;28;20102;-71
2022/07/07 06:41:07;;;;;;;5.88;1.38;;;21.80;99.90;;;;;;5064381;28;20049;-71
2022/07/07 06:43:33;;;;;;;4.05;1.15;;;21.30;99.90;;;;;;5063028;28;20068;-71
2022/07/07 06:45:58;;;;;;;5.32;1.45;;;21.80;99.90;;;;;;5060835;28;20102;-70
2022/07/07 06:48:24;;;;;;;5.25;1.63;;;21.80;99.90;;;;;;5064629;28;20048;-71
2022/07/07 06:50:49;;;;;;;5.53;1.35;;;21.40;99.90;;;;;;5070702;28;20138;-67
2022/07/07 06:53:15;;;;;;;7.00;1.55;;;20.60;99.90;;;;;;5072507;28;20058;-68
2022/07/07 06:55:41;;;;;;;5.40;1.30;;;20.80;99.90;;;;;;5071291;28;20041;-69
2022/07/07 06:58:08;;;;;;;5.75;1.42;;;20.60;99.90;;;;;;5071797;28;20033;-68
2022/07/07 07:00:34;;;;;;;4.57;1.08;;;20.60;99.90;;;;;;5073434;28;20056;-66
2022/07/07 07:02:59;;;;;;;8.35;1.70;;;21.40;99.90;;;;;;5075646;28;20052;-68
2022/07/07 07:05:26;;;;;;;5.50;1.63;;;21.30;99.90;;;;;;5077848;28;20096;-66
2022/07/07 07:07:52;;;;;;;4.50;1.17;;;22.10;99.90;;;;;;5074326;28;20046;-68
2022/07/07 07:10:17;;;;;;;5.90;1.45;;;22.60;99.90;;;;;;5065518;28;20037;-72
2022/07/07 07:12:43;;;;;;;4.18;1.30;;;22.90;99.90;;;;;;5071606;28;20044;-67
2022/07/07 07:15:10;;;;;;;8.38;1.48;;;22.70;99.90;;;;;;5078095;28;20044;-67
2022/07/07 07:17:36;;;;;;;9.10;1.80;;;22.00;99.90;;;;;;5070022;28;20032;-68
2022/07/07 07:20:02;;;;;;;6.30;1.65;;;21.70;99.90;;;;;;5071964;28;20040;-70
2022/07/07 07:22:34;;;;;;;4.67;1.20;;;21.20;99.90;;;;;;5064581;28;20499;-69
2022/07/07 07:24:59;;;;;;;5.18;1.50;;;21.00;99.90;;;;;;5069793;28;20135;-68
2022/07/07 07:27:25;;;;;;;5.75;1.30;;;20.70;99.90;;;;;;5074125;28;20120;-68
2022/07/07 07:29:50;;;;;;;3.50;1.00;;;20.20;99.90;;;;;;5071637;28;20477;-70
2022/07/07 07:32:16;;;;;;;5.97;1.38;;;19.40;99.90;;;;;;5073829;28;20166;-71
2022/07/07 07:34:41;;;;;;;7.40;1.52;;;19.00;99.90;;;;;;5066847;28;20364;-70
2022/07/07 07:37:07;;;;;;;8.00;1.88;;;18.40;99.90;;;;;;5073427;28;20433;-68
2022/07/07 07:39:34;;;;;;;3.65;1.25;;;18.00;99.90;;;;;;5077017;28;20098;-70
2022/07/07 07:41:59;;;;;;;4.20;1.23;;;17.90;99.90;;;;;;5068887;28;20064;-70
2022/07/07 07:47:09;;;;;;;3.53;1.17;;;17.90;99.90;;;;;;5064319;28;20070;-69
2022/07/07 07:49:34;;;;;;;5.70;1.20;;;18.00;99.90;;;;;;5074215;28;20047;-69
2022/07/07 07:52:00;;;;;;;4.03;0.98;;;17.90;99.90;;;;;;5074884;28;20045;-70
2022/07/07 07:54:26;;;;;;;5.03;1.20;;;18.10;99.90;;;;;;5073769;28;20052;-69
2022/07/07 07:56:51;;;;;;;4.60;0.90;;;17.70;99.90;;;;;;5079394;28;20047;-69
2022/07/07 07:59:17;;;;;;;3.95;1.02;;;18.00;99.90;;;;;;5079282;28;20101;-68
2022/07/07 08:01:42;;;;;;;4.65;1.10;;;18.30;99.90;;;;;;5078357;28;20076;-68
2022/07/07 08:04:08;;;;;;;2.88;1.00;;;18.50;99.90;;;;;;5079450;28;20036;-69
2022/07/07 08:06:33;;;;;;;2.47;0.75;;;18.80;99.90;;;;;;5077130;28;20167;-68
2022/07/07 08:08:59;;;;;;;3.22;0.90;;;18.90;99.90;;;;;;5077222;28;20441;-69
2022/07/07 08:11:24;;;;;;;2.45;1.00;;;19.20;99.90;;;;;;5076833;28;20071;-69
2022/07/07 08:13:50;;;;;;;5.10;1.30;;;19.60;99.90;;;;;;5078255;28;20051;-69
2022/07/07 08:16:16;;;;;;;3.58;1.10;;;19.90;99.90;;;;;;5075186;28;20487;-68
2022/07/07 08:18:41;;;;;;;3.13;0.85;;;19.80;99.90;;;;;;5079375;28;20048;-68
2022/07/07 08:21:07;;;;;;;2.80;0.80;;;19.40;99.90;;;;;;5068493;28;20040;-69
2022/07/07 08:23:32;;;;;;;1.98;0.50;;;19.10;99.90;;;;;;5075083;28;20043;-67
2022/07/07 08:25:58;;;;;;;2.30;1.02;;;18.80;99.90;;;;;;5074155;28;20036;-68
2022/07/07 08:28:23;;;;;;;2.38;0.60;;;18.80;99.90;;;;;;5074307;28;20496;-69
2022/07/07 08:30:49;;;;;;;2.65;1.05;;;18.80;99.90;;;;;;5076625;28;20036;-66
2022/07/07 08:33:16;;;;;;;3.30;0.90;;;18.70;99.90;;;;;;5073909;28;20048;-69
2022/07/07 08:35:41;;;;;;;3.28;1.02;;;19.20;99.90;;;;;;5072114;28;20056;-66
2022/07/07 08:38:07;;;;;;;1.70;0.63;;;19.00;99.90;;;;;;5068044;28;20048;-68
2022/07/07 08:40:33;;;;;;;2.53;0.70;;;18.70;99.90;;;;;;5069880;28;20059;-68
2022/07/07 08:42:59;;;;;;;2.13;0.60;;;18.70;99.90;;;;;;5071567;28;20131;-68
2022/07/07 08:45:25;;;;;;;1.35;0.60;;;18.70;99.90;;;;;;5085532;28;20036;-67
2022/07/07 08:47:51;;;;;;;2.50;0.63;;;18.80;99.90;;;;;;5073172;28;20036;-67
2022/07/07 08:50:17;;;;;;;2.35;0.73;;;18.70;99.90;;;;;;5072456;28;20086;-68
2022/07/07 08:52:44;;;;;;;2.87;0.80;;;18.60;99.90;;;;;;5073372;28;20052;-67
2022/07/07 08:55:12;;;;;;;2.33;0.95;;;18.90;99.90;;;;;;5077537;28;20321;-68
2022/07/07 08:57:38;;;;;;;1.75;0.80;;;19.30;99.90;;;;;;5075468;28;20131;-68
2022/07/07 09:00:04;;;;;;;4.47;1.17;;;20.00;99.90;;;;;;5076911;28;20131;-67
2022/07/07 09:02:30;;;;;;;2.60;0.88;;;19.70;99.90;;;;;;5078141;28;20044;-67
2022/07/07 09:04:55;;;;;;;4.50;1.05;;;19.80;99.90;;;;;;5078231;28;20036;-67
2022/07/07 09:07:21;;;;;;;5.65;1.08;;;19.80;99.90;;;;;;5076839;28;20073;-69
2022/07/07 09:09:55;;;;;;;5.95;1.30;;;19.90;99.90;;;;;;5075074;28;20045;-68
2022/07/07 09:12:20;;;;;;;2.60;1.00;;;19.90;99.90;;;;;;5064850;28;20044;-68
2022/07/07 09:14:49;;;;;;;5.30;1.15;;;19.20;99.90;;;;;;5075541;28;20340;-68
2022/07/07 09:17:26;;;;;;;2.65;1.30;;;18.70;99.90;;;;;;5080292;28;20068;-67
2022/07/07 09:20:18;;;;;;;3.33;1.50;;;18.50;99.90;;;;;;5076400;28;20049;-67
2022/07/07 09:22:52;;;;;;;3.88;1.35;;;18.60;99.90;;;;;;5069970;28;20059;-67
2022/07/07 09:25:20;;;;;;;4.18;1.60;;;18.80;99.90;;;;;;5073685;28;20115;-68
2022/07/07 09:28:00;;;;;;;3.78;1.67;;;19.20;99.90;;;;;;5069946;28;20505;-70
2022/07/07 09:30:29;;;;;;;3.67;1.10;;;19.40;99.90;;;;;;5070306;28;20060;-69
2022/07/07 09:32:55;;;;;;;2.15;1.33;;;19.90;99.90;;;;;;5069923;28;20044;-69
2022/07/07 09:38:13;;;;;;;4.15;1.02;;;20.10;99.90;;;;;;5067428;28;20044;-69
2022/07/07 09:38:14;;;;;;;3.30;1.30;;;20.30;99.90;;;;;;5073517;28;20040;-71
2022/07/07 09:40:53;;;;;;;2.90;0.93;;;20.40;99.90;;;;;;5068723;28;20408;-70
2022/07/07 09:43:20;;;;;;;4.18;1.30;;;20.20;99.90;;;;;;5073448;28;20062;-68
2022/07/07 09:46:05;;;;;;;4.07;1.33;;;19.80;99.90;;;;;;5068241;28;20123;-69
2022/07/07 09:48:32;;;;;;;3.78;1.20;;;19.40;99.90;;;;;;5067176;28;20513;-67
2022/07/07 09:51:17;;;;;;;3.25;1.30;;;19.00;99.90;;;;;;5067715;28;20136;-68
2022/07/07 09:54:12;;;;;;;5.43;1.35;;;18.70;99.90;;;;;;5073309;28;20080;-68
2022/07/07 09:56:40;;;;;;;3.63;1.30;;;18.50;99.90;;;;;;5076789;28;20056;-68
2022/07/07 09:59:16;;;;;;;3.10;1.50;;;18.40;99.90;;;;;;5073589;28;20067;-68
2022/07/07 10:01:44;;;;;;;4.22;1.25;;;18.30;99.90;;;;;;5073587;28;20048;-69
2022/07/07 10:04:13;;;;;;;5.45;1.73;;;18.60;99.90;;;;;;5072690;28;20163;-69
2022/07/07 10:06:40;;;;;;;3.70;1.00;;;19.00;99.90;;;;;;5073228;28;20044;-69
2022/07/07 10:09:10;;;;;;;2.30;1.30;;;18.90;99.90;;;;;;5074037;28;20047;-69
2022/07/07 10:11:48;;;;;;;3.05;1.02;;;19.10;99.90;;;;;;5074875;28;20049;-68
2022/07/07 10:14:19;;;;;;;5.38;1.48;;;18.80;99.90;;;;;;5073264;28;20070;-69
2022/07/07 10:16:47;;;;;;;2.90;1.45;;;18.70;99.90;;;;;;5067920;28;20051;-68
2022/07/07 10:19:15;;;;;;;4.72;1.33;;;18.60;99.90;;;;;;5072650;28;20107;-68
2022/07/07 10:21:42;;;;;;;3.50;1.70;;;18.50;99.90;;;;;;5073494;28;20120;-68
2022/07/07 10:24:08;;;;;;;;;;;18.20;99.90;;;;;;5074959;28;20123;-68
2022/07/07 10:26:37;;;;;;;4.80;1.45;;;18.20;99.90;;;;;;5068359;28;19963;-70
2022/07/07 10:29:03;;;;;;;4.88;1.42;;;18.10;99.90;;;;;;5070656;28;20080;-66
2022/07/07 10:31:30;;;;;;;3.00;1.20;;;18.20;99.90;;;;;;5069351;28;20036;-67
2022/07/07 10:34:04;;;;;;;3.10;1.30;;;18.30;99.90;;;;;;5069192;28;20051;-67
2022/07/07 10:36:50;;;;;;;3.47;1.67;;;18.50;99.90;;;;;;5071818;28;20056;-68
2022/07/07 10:39:27;;;;;;;5.07;1.73;;;18.70;99.90;;;;;;5073692;28;20118;-68
2022/07/07 10:42:13;;;;;;;5.15;1.70;;;18.80;99.90;;;;;;5074224;28;20104;-67
2022/07/07 10:44:39;;;;;;;3.90;1.50;;;19.00;99.90;;;;;;5074202;28;20058;-67
2022/07/07 10:47:25;;;;;;;4.65;1.67;;;19.10;99.90;;;;;;5073320;28;20119;-67
2022/07/07 10:49:53;;;;;;;2.40;1.17;;;19.30;99.90;;;;;;5072357;28;20121;-66
2022/07/07 10:52:40;;;;;;;4.03;1.35;;;19.10;99.90;;;;;;5071351;28;20087;-66
2022/07/07 10:55:06;;;;;;;;;;;19.30;99.90;;;;;;5075041;28;20056;-67
2022/07/07 10:57:43;;;;;;;3.58;1.88;;;19.30;99.90;;;;;;5073880;28;20011;-66
2022/07/07 11:00:11;;;;;;;5.72;1.45;;;19.30;99.90;;;;;;5074517;28;20412;-68
2022/07/07 11:02:47;;;;;;;3.15;1.45;;;19.20;99.90;;;;;;5072809;28;20130;-67
2022/07/07 11:05:15;;;;;;;4.32;1.13;;;19.00;99.90;;;;;;5072350;28;20051;-67
2022/07/07 11:07:56;;;;;;;5.72;1.42;;;19.10;99.90;;;;;;5072889;28;20040;-67
2022/07/07 11:10:42;;;;;;;3.78;1.30;;;19.10;99.90;;;;;;5073093;28;20570;-67
2022/07/07 11:13:30;;;;;;;3.72;1.40;;;19.30;99.90;;;;;;5054789;28;20041;-67
2022/07/07 11:16:28;;;;;;;4.72;1.20;;;19.10;99.90;;;;;;5057660;28;20448;-67
2022/07/07 11:19:00;;;;;;;4.82;1.23;;;18.50;99.90;;;;;;5046199;28;20044;-67
2022/07/07 11:21:36;;;;;;;4.90;0.90;;;17.90;99.90;;;;;;5069479;28;20068;-65
2022/07/07 11:24:02;;;;;;;2.65;0.82;;;;;;;;;;5068861;28;20050;-67
2022/07/07 11:26:28;;;;;;;4.83;1.47;;;17.30;99.90;;;;;;5068194;28;20454;-72
2022/07/07 11:28:56;;;;;;;3.20;1.17;;;17.30;99.90;;;;;;5065899;28;20389;-73
2022/07/07 11:31:23;;;;;;;4.60;1.58;;;17.50;99.90;;;;;;5066072;28;20060;-67
2022/07/07 11:33:53;;;;;;;7.30;1.77;;;17.60;99.90;;;;;;5066661;28;20094;-67
2022/07/07 11:36:28;;;;;;;6.47;1.60;;;17.60;99.90;;;;;;5066331;28;20072;-67
2022/07/07 11:39:04;;;;;;;3.97;1.40;;;17.40;99.90;;;;;;5066074;28;20111;-67
2022/07/07 11:41:45;;;;;;;3.30;1.05;;;17.20;99.90;;;;;;5066179;28;20048;-67
2022/07/07 11:44:21;;;;;;;6.05;1.60;;;17.10;99.90;;;;;;5068798;28;20048;-68
2022/07/07 11:46:49;;;;;;;5.35;1.63;;;17.50;99.90;;;;;;5071071;28;20054;-67
2022/07/07 11:49:19;;;;;;;7.03;1.63;;;17.60;99.90;;;;;;5069514;28;20340;-68
2022/07/07 11:51:45;;;;;;;6.93;2.05;;;17.80;99.90;;;;;;5066592;28;20060;-67
2022/07/07 11:54:11;;;;;;;5.60;1.58;;;18.00;99.90;;;;;;5069813;28;20096;-68
2022/07/07 11:56:37;;;;;;;6.05;1.67;;;18.20;99.90;;;;;;5067358;28;20059;-68
2022/07/07 11:59:04;;;;;;;5.63;1.77;;;18.60;99.90;;;;;;5070271;28;20045;-68
2022/07/07 12:01:31;;;;;;;8.30;1.90;;;18.70;99.90;;;;;;5065963;28;20119;-67
2022/07/07 12:03:57;;;;;;;8.40;1.73;;;19.20;99.90;;;;;;5068771;28;21019;-68
2022/07/07 12:06:27;;;;;;;8.18;1.75;;;19.30;99.90;;;;;;5072911;28;20037;-68
2022/07/07 12:08:55;;;;;;;5.38;1.17;;;19.60;99.90;;;;;;5074233;28;20124;-68
2022/07/07 12:11:20;;;;;;;7.30;1.23;;;19.00;99.90;;;;;;5076971;28;20502;-68
2022/07/07 12:13:46;;;;;;;8.32;1.95;;;18.50;99.90;;;;;;5073846;28;20111;-68
2022/07/07 12:16:12;;;;;;;6.75;1.50;;;18.00;99.90;;;;;;5071639;28;20037;-68
2022/07/07 12:18:40;;;;;;;7.50;2.00;;;17.70;99.90;;;;;;5065769;28;20040;-67
2022/07/07 12:21:11;;;;;;;8.10;1.77;;;17.60;99.90;;;;;;5068655;28;20181;-67
2022/07/07 12:23:42;;;;;;;8.60;2.45;;;17.70;99.90;;;;;;5068968;28;20748;-67
2022/07/07 12:26:12;;;;;;;11.23;2.80;;;17.80;99.90;;;;;;5070687;28;20087;-67
2022/07/07 12:28:38;;;;;;;7.25;1.85;;;18.10;99.90;;;;;;5070926;28;20116;-67
2022/07/07 12:31:05;;;;;;;12.90;3.13;;;18.10;99.90;;;;;;5071799;28;20087;-67
2022/07/07 12:33:39;;;;;;;5.50;1.23;;;18.30;99.90;;;;;;5069144;28;20519;-68
2022/07/07 12:36:21;;;;;;;11.00;2.60;;;17.90;99.90;;;;;;5074439;28;20043;-68
2022/07/07 12:38:48;;;;;;;8.55;2.30;;;17.70;99.90;;;;;;5071979;28;20033;-68
2022/07/07 12:41:42;;;;;;;11.75;2.47;;;17.90;99.90;;;;;;5073291;28;20072;-67
2022/07/07 12:44:19;;;;;;;8.30;2.35;;;18.40;99.90;;;;;;5068842;28;20076;-68
2022/07/07 12:46:45;;;;;;;11.30;2.45;;;18.70;99.90;;;;;;5077770;28;20040;-67
2022/07/07 12:49:12;;;;;;;10.45;2.67;;;19.00;99.90;;;;;;5077250;28;20492;-67
2022/07/07 12:51:44;;;;;;;10.98;2.33;;;19.30;99.90;;;;;;5074321;28;20052;-68
2022/07/07 12:54:25;;;;;;;10.20;2.22;;;19.30;99.90;;;;;;5076963;28;20479;-69